Las Vegas, NM

08:59 MST le 20 février 2017 (GMT -0700)
Las Vegas Municipal | | Change Station
Avis météorologiques actifs: Fire Weather Watch

Alt. 6877 ft 35.65 °N, 105.14 °W | Updated 6 minutes ago

Ciel dégagé
Ciel dégagé
46 ° F
Paraît 37 ° F
N
26
Vent Variable Vent de NO
Gusts 33 mph

Aujourd'hui
Haut(e) -- | Bas -- ° F
--% Risque de précip.
Hier
Haut(e) -- | Bas -- ° F
Precip. -- pouce
Pression 29.99 pouce
Visibilité 10.0 Miles terrestres
Nuages Ciel dégagé
Refroidissement éolien 37 ° F
Point de rosée 16 ° F
Humidité 30%
Précipitations 0.00 pouce
Profondeur de la couche neigeuse Non disponible.
6:41 AM 5:47 PM
Lune descendante, 33% visible
METAR KLVS 201553Z AUTO 32023G29KT 10SM CLR 08/M09 A3009 RMK AO2 PK WND 32029/1534 SLP154 T00781089
Pression 29.99 pouce
Visibilité 10.0 Miles terrestres
Nuages Ciel dégagé
Refroidissement éolien 37 ° F
Point de rosée 16 ° F
Humidité 30%
Précipitations 0.00 pouce
Profondeur de la couche neigeuse Non disponible.
6:41 AM 5:47 PM
Lune descendante, 33% visible
METAR KLVS 201553Z AUTO 32023G29KT 10SM CLR 08/M09 A3009 RMK AO2 PK WND 32029/1534 SLP154 T00781089

Get Your Daily Forecast Email!

Thanks for signing up!

Be on the lookout for a verification email in your inbox.

You'll start receiving the daily forecast at 8 AM.

×

10-Day Weather Forecast

Almanac

Astronomie

Feb. 20, 2017 Lever Coucher
Temps réel
Crépuscule civil
Crépuscule nautique
Crépuscule astronomique
Lune
Durée de lumière visible
Longueur du jour
Tomorrow will be .
, % of the Moon is Illuminated

Extrêmes aujourd'hui

State Highs State Lows

Community

WunderPhotos

Upload Photos

1,962,540 Photos téléchargées !

WunderBlog® & News

Nearby

Qualité de l'air

  Qualité de l'air Indice de la qualité de l'air Polluant
Not available.

Épaisseur de neige

Station Depth Altitude

Activité sismique

Ville Distance Mag. Time & Date
Minimum magnitude displayed is 2.5.

Températures des eaux côtières

Lieu Température

Stations

Stations météo à proximité

Emplacement de la station Température Refroidissement éolien Point de rosée Humidité Vent Precip. Alt. Mise à jour Type
                   

Watches & Warnings

Fire Weather Watch
Issued: 07:29 MST Feb. 20, 2017 – National Weather Service

... Fire Weather Watch in effect Wednesday afternoon...

The National Weather Service in Albuquerque has issued a Fire
Weather Watch... which is in effect Wednesday afternoon.

* Area and timing... plains or lower elevation portion of the northeast
Highlands Wednesday afternoon.


* 20 foot winds... westerly 20 to 25 mph with gusts possible to 35
mph.

* Relative humidity... minimum values 10 to 15 percent along and
east of Interstate 25.

* Impacts... any fires that develop will likely spread rapidly.
Outdoor burning is not recommended.

Precautionary/preparedness actions...

Please advise the appropriate officials or fire crews in the
field of this Fire Weather Watch.